Terminal Aerodrome Forecast
Issued by NWS Albany, NY

Home | Current Version | Previous Version | Text Only | Print | Product List | Glossary On
Versions: 1 2 3 4 5 6 7 8 9 10 11 12 13 14 15 16 17 18 19 20 21 22 23 24 25 26
784
FTUS41 KALY 191720
TAFALB
TAF
KALB 191720Z 1918/2018 29028G40KT P6SM BKN035 BKN050 OVC150
     FM192200 28020G30KT P6SM BKN035 BKN050
     FM200400 29012G24KT P6SM VCSH OVC035 PROB30 2004/2008 2SM -SHSN
      BR BKN020 OVC030
     FM201300 28014G28KT P6SM VCSH BKN050=

USA.gov is the U.S. government's official web portal to all federal, state and local government web resources and services.